sensor_id;sensor_type;location;lat;lon;timestamp;P1;durP1;ratioP1;P2;durP2;ratioP2
68214;SDS011;55036;52.138;5.236;2023-02-12T00:02:16;26.27;;;12.63;;
68214;SDS011;55036;52.138;5.236;2023-02-12T00:04:43;18.20;;;11.77;;
68214;SDS011;55036;52.138;5.236;2023-02-12T00:07:12;20.85;;;11.30;;
68214;SDS011;55036;52.138;5.236;2023-02-12T00:09:39;16.25;;;10.90;;
68214;SDS011;55036;52.138;5.236;2023-02-12T00:12:06;20.40;;;11.82;;
68214;SDS011;55036;52.138;5.236;2023-02-12T00:14:32;18.60;;;11.60;;
68214;SDS011;55036;52.138;5.236;2023-02-12T00:16:59;22.25;;;12.18;;
68214;SDS011;55036;52.138;5.236;2023-02-12T00:19:26;21.08;;;12.20;;
68214;SDS011;55036;52.138;5.236;2023-02-12T00:21:53;19.85;;;11.38;;
68214;SDS011;55036;52.138;5.236;2023-02-12T00:24:19;15.70;;;10.80;;
68214;SDS011;55036;52.138;5.236;2023-02-12T00:26:46;21.00;;;12.38;;
68214;SDS011;55036;52.138;5.236;2023-02-12T00:29:13;19.80;;;13.00;;
68214;SDS011;55036;52.138;5.236;2023-02-12T00:31:40;18.48;;;12.20;;
68214;SDS011;55036;52.138;5.236;2023-02-12T00:34:08;22.10;;;12.95;;
68214;SDS011;55036;52.138;5.236;2023-02-12T00:36:36;21.58;;;11.73;;
68214;SDS011;55036;52.138;5.236;2023-02-12T00:39:02;23.67;;;13.00;;
68214;SDS011;55036;52.138;5.236;2023-02-12T00:41:29;25.38;;;13.27;;
68214;SDS011;55036;52.138;5.236;2023-02-12T00:43:56;21.17;;;12.65;;
68214;SDS011;55036;52.138;5.236;2023-02-12T00:46:23;21.30;;;13.05;;
68214;SDS011;55036;52.138;5.236;2023-02-12T00:48:50;22.48;;;13.38;;
68214;SDS011;55036;52.138;5.236;2023-02-12T00:51:16;21.52;;;12.68;;
68214;SDS011;55036;52.138;5.236;2023-02-12T00:53:43;21.83;;;12.60;;
68214;SDS011;55036;52.138;5.236;2023-02-12T00:56:10;19.33;;;12.18;;
68214;SDS011;55036;52.138;5.236;2023-02-12T00:58:36;20.52;;;13.35;;
68214;SDS011;55036;52.138;5.236;2023-02-12T01:01:03;20.23;;;12.75;;
68214;SDS011;55036;52.138;5.236;2023-02-12T01:03:30;20.85;;;12.75;;
68214;SDS011;55036;52.138;5.236;2023-02-12T01:05:57;18.88;;;12.63;;
68214;SDS011;55036;52.138;5.236;2023-02-12T01:08:24;24.55;;;13.63;;
68214;SDS011;55036;52.138;5.236;2023-02-12T01:10:55;24.48;;;12.70;;
68214;SDS011;55036;52.138;5.236;2023-02-12T01:13:23;22.85;;;13.10;;
68214;SDS011;55036;52.138;5.236;2023-02-12T01:16:07;17.70;;;11.80;;
68214;SDS011;55036;52.138;5.236;2023-02-12T01:18:39;20.75;;;12.35;;
68214;SDS011;55036;52.138;5.236;2023-02-12T01:21:13;19.77;;;12.48;;
68214;SDS011;55036;52.138;5.236;2023-02-12T01:23:42;19.85;;;11.68;;
68214;SDS011;55036;52.138;5.236;2023-02-12T01:26:09;21.45;;;13.18;;
68214;SDS011;55036;52.138;5.236;2023-02-12T01:28:38;23.10;;;11.98;;
68214;SDS011;55036;52.138;5.236;2023-02-12T01:31:13;20.40;;;12.38;;
68214;SDS011;55036;52.138;5.236;2023-02-12T01:33:41;19.30;;;12.55;;
68214;SDS011;55036;52.138;5.236;2023-02-12T01:36:09;20.15;;;12.20;;
68214;SDS011;55036;52.138;5.236;2023-02-12T01:38:36;22.60;;;12.45;;
68214;SDS011;55036;52.138;5.236;2023-02-12T01:41:14;18.63;;;12.30;;
68214;SDS011;55036;52.138;5.236;2023-02-12T01:44:03;20.42;;;12.30;;
68214;SDS011;55036;52.138;5.236;2023-02-12T01:46:32;20.90;;;12.45;;
68214;SDS011;55036;52.138;5.236;2023-02-12T01:48:59;22.80;;;12.35;;
68214;SDS011;55036;52.138;5.236;2023-02-12T01:51:27;17.75;;;11.85;;
68214;SDS011;55036;52.138;5.236;2023-02-12T01:53:54;17.17;;;11.27;;
68214;SDS011;55036;52.138;5.236;2023-02-12T01:56:27;17.00;;;11.55;;
68214;SDS011;55036;52.138;5.236;2023-02-12T01:58:54;21.23;;;12.30;;
68214;SDS011;55036;52.138;5.236;2023-02-12T02:01:32;21.77;;;12.23;;
68214;SDS011;55036;52.138;5.236;2023-02-12T02:04:00;17.05;;;11.43;;
68214;SDS011;55036;52.138;5.236;2023-02-12T02:06:33;24.40;;;12.35;;
68214;SDS011;55036;52.138;5.236;2023-02-12T02:09:04;19.02;;;12.05;;
68214;SDS011;55036;52.138;5.236;2023-02-12T02:11:32;16.98;;;11.40;;
68214;SDS011;55036;52.138;5.236;2023-02-12T02:14:17;18.25;;;12.18;;
68214;SDS011;55036;52.138;5.236;2023-02-12T02:22:46;17.15;;;11.65;;
68214;SDS011;55036;52.138;5.236;2023-02-12T02:34:17;19.40;;;12.00;;
68214;SDS011;55036;52.138;5.236;2023-02-12T02:36:57;21.45;;;12.50;;
68214;SDS011;55036;52.138;5.236;2023-02-12T02:39:37;20.63;;;11.35;;
68214;SDS011;55036;52.138;5.236;2023-02-12T02:42:32;22.30;;;12.02;;
68214;SDS011;55036;52.138;5.236;2023-02-12T02:45:23;19.53;;;11.67;;
68214;SDS011;55036;52.138;5.236;2023-02-12T02:48:03;19.35;;;12.02;;
68214;SDS011;55036;52.138;5.236;2023-02-12T02:50:38;19.53;;;12.43;;
68214;SDS011;55036;52.138;5.236;2023-02-12T02:53:13;20.60;;;11.60;;
68214;SDS011;55036;52.138;5.236;2023-02-12T02:55:46;20.60;;;12.45;;
68214;SDS011;55036;52.138;5.236;2023-02-12T02:58:20;19.52;;;13.02;;
68214;SDS011;55036;52.138;5.236;2023-02-12T03:03:27;20.98;;;12.65;;
68214;SDS011;55036;52.138;5.236;2023-02-12T03:06:01;19.08;;;11.95;;
68214;SDS011;55036;52.138;5.236;2023-02-12T03:08:33;23.60;;;13.70;;
68214;SDS011;55036;52.138;5.236;2023-02-12T03:11:07;22.17;;;13.57;;
68214;SDS011;55036;52.138;5.236;2023-02-12T03:13:49;22.60;;;14.48;;
68214;SDS011;55036;52.138;5.236;2023-02-12T03:16:22;22.02;;;13.05;;
68214;SDS011;55036;52.138;5.236;2023-02-12T03:18:58;19.83;;;12.90;;
68214;SDS011;55036;52.138;5.236;2023-02-12T03:21:36;21.65;;;12.77;;
68214;SDS011;55036;52.138;5.236;2023-02-12T03:24:20;23.10;;;14.05;;
68214;SDS011;55036;52.138;5.236;2023-02-12T03:30:02;23.27;;;15.07;;
68214;SDS011;55036;52.138;5.236;2023-02-12T03:32:38;21.48;;;13.05;;
68214;SDS011;55036;52.138;5.236;2023-02-12T03:35:23;20.33;;;13.13;;
68214;SDS011;55036;52.138;5.236;2023-02-12T03:37:58;21.45;;;13.05;;
68214;SDS011;55036;52.138;5.236;2023-02-12T03:40:32;22.27;;;13.98;;
68214;SDS011;55036;52.138;5.236;2023-02-12T03:43:08;26.05;;;13.35;;
68214;SDS011;55036;52.138;5.236;2023-02-12T03:45:44;22.65;;;13.45;;
68214;SDS011;55036;52.138;5.236;2023-02-12T03:50:51;16.08;;;11.70;;
68214;SDS011;55036;52.138;5.236;2023-02-12T03:53:19;20.27;;;13.70;;
68214;SDS011;55036;52.138;5.236;2023-02-12T03:55:46;22.23;;;11.77;;
68214;SDS011;55036;52.138;5.236;2023-02-12T03:58:20;21.33;;;12.40;;
68214;SDS011;55036;52.138;5.236;2023-02-12T04:00:50;23.83;;;12.77;;
68214;SDS011;55036;52.138;5.236;2023-02-12T04:03:17;21.10;;;13.43;;
68214;SDS011;55036;52.138;5.236;2023-02-12T04:05:44;20.52;;;12.35;;
68214;SDS011;55036;52.138;5.236;2023-02-12T04:08:11;22.92;;;13.80;;
68214;SDS011;55036;52.138;5.236;2023-02-12T04:13:10;23.40;;;13.75;;
68214;SDS011;55036;52.138;5.236;2023-02-12T04:18:33;25.13;;;15.52;;
68214;SDS011;55036;52.138;5.236;2023-02-12T04:21:58;24.45;;;15.63;;
68214;SDS011;55036;52.138;5.236;2023-02-12T04:27:04;25.40;;;14.98;;
68214;SDS011;55036;52.138;5.236;2023-02-12T04:32:50;21.63;;;14.07;;
68214;SDS011;55036;52.138;5.236;2023-02-12T04:35:22;25.55;;;15.50;;
68214;SDS011;55036;52.138;5.236;2023-02-12T04:37:58;25.58;;;15.02;;
68214;SDS011;55036;52.138;5.236;2023-02-12T04:40:41;26.15;;;14.15;;
68214;SDS011;55036;52.138;5.236;2023-02-12T04:43:09;25.92;;;15.52;;
68214;SDS011;55036;52.138;5.236;2023-02-12T04:45:36;23.65;;;14.40;;
68214;SDS011;55036;52.138;5.236;2023-02-12T04:48:03;25.42;;;15.05;;
68214;SDS011;55036;52.138;5.236;2023-02-12T04:50:39;25.92;;;14.65;;
68214;SDS011;55036;52.138;5.236;2023-02-12T04:53:08;23.95;;;14.57;;
68214;SDS011;55036;52.138;5.236;2023-02-12T04:55:35;26.02;;;15.75;;
68214;SDS011;55036;52.138;5.236;2023-02-12T04:58:03;30.90;;;16.65;;
68214;SDS011;55036;52.138;5.236;2023-02-12T05:00:30;26.95;;;16.38;;
68214;SDS011;55036;52.138;5.236;2023-02-12T05:02:57;29.63;;;16.13;;
68214;SDS011;55036;52.138;5.236;2023-02-12T05:05:24;24.98;;;15.13;;
68214;SDS011;55036;52.138;5.236;2023-02-12T05:07:51;34.75;;;16.58;;
68214;SDS011;55036;52.138;5.236;2023-02-12T05:10:17;27.67;;;15.55;;
68214;SDS011;55036;52.138;5.236;2023-02-12T05:12:44;23.10;;;14.93;;
68214;SDS011;55036;52.138;5.236;2023-02-12T05:15:11;26.40;;;15.95;;
68214;SDS011;55036;52.138;5.236;2023-02-12T05:17:37;28.20;;;16.23;;
68214;SDS011;55036;52.138;5.236;2023-02-12T05:20:04;27.23;;;15.82;;
68214;SDS011;55036;52.138;5.236;2023-02-12T05:22:31;24.85;;;15.80;;
68214;SDS011;55036;52.138;5.236;2023-02-12T05:24:58;25.30;;;15.70;;
68214;SDS011;55036;52.138;5.236;2023-02-12T05:27:25;27.30;;;16.30;;
68214;SDS011;55036;52.138;5.236;2023-02-12T05:29:51;27.83;;;16.40;;
68214;SDS011;55036;52.138;5.236;2023-02-12T05:32:18;31.50;;;16.58;;
68214;SDS011;55036;52.138;5.236;2023-02-12T05:34:45;28.70;;;16.05;;
68214;SDS011;55036;52.138;5.236;2023-02-12T05:37:11;26.08;;;14.88;;
68214;SDS011;55036;52.138;5.236;2023-02-12T05:39:38;24.20;;;14.40;;
68214;SDS011;55036;52.138;5.236;2023-02-12T05:42:05;21.83;;;14.48;;
68214;SDS011;55036;52.138;5.236;2023-02-12T05:44:31;30.00;;;15.80;;
68214;SDS011;55036;52.138;5.236;2023-02-12T05:46:58;27.17;;;16.27;;
68214;SDS011;55036;52.138;5.236;2023-02-12T05:49:25;26.38;;;15.10;;
68214;SDS011;55036;52.138;5.236;2023-02-12T05:51:51;24.17;;;15.25;;
68214;SDS011;55036;52.138;5.236;2023-02-12T05:54:18;26.35;;;15.60;;
68214;SDS011;55036;52.138;5.236;2023-02-12T05:56:45;27.33;;;15.10;;
68214;SDS011;55036;52.138;5.236;2023-02-12T05:59:17;24.50;;;15.32;;
68214;SDS011;55036;52.138;5.236;2023-02-12T06:01:46;25.95;;;15.57;;
68214;SDS011;55036;52.138;5.236;2023-02-12T06:04:16;25.83;;;15.20;;
68214;SDS011;55036;52.138;5.236;2023-02-12T06:06:44;27.17;;;15.20;;
68214;SDS011;55036;52.138;5.236;2023-02-12T06:09:11;24.75;;;15.70;;
68214;SDS011;55036;52.138;5.236;2023-02-12T06:11:39;24.98;;;14.25;;
68214;SDS011;55036;52.138;5.236;2023-02-12T06:14:06;23.63;;;14.35;;
68214;SDS011;55036;52.138;5.236;2023-02-12T06:16:36;22.35;;;14.52;;
68214;SDS011;55036;52.138;5.236;2023-02-12T06:19:03;25.42;;;14.68;;
68214;SDS011;55036;52.138;5.236;2023-02-12T06:21:31;23.75;;;14.75;;
68214;SDS011;55036;52.138;5.236;2023-02-12T06:23:58;25.77;;;15.38;;
68214;SDS011;55036;52.138;5.236;2023-02-12T06:26:26;22.58;;;14.18;;
68214;SDS011;55036;52.138;5.236;2023-02-12T06:28:53;23.95;;;14.68;;
68214;SDS011;55036;52.138;5.236;2023-02-12T06:31:24;23.70;;;14.63;;
68214;SDS011;55036;52.138;5.236;2023-02-12T06:33:54;26.30;;;14.73;;
68214;SDS011;55036;52.138;5.236;2023-02-12T06:36:21;24.02;;;14.98;;
68214;SDS011;55036;52.138;5.236;2023-02-12T06:38:49;24.67;;;15.02;;
68214;SDS011;55036;52.138;5.236;2023-02-12T06:41:17;24.58;;;14.60;;
68214;SDS011;55036;52.138;5.236;2023-02-12T06:43:44;22.05;;;14.02;;
68214;SDS011;55036;52.138;5.236;2023-02-12T06:46:10;27.85;;;15.75;;
68214;SDS011;55036;52.138;5.236;2023-02-12T06:48:38;27.30;;;15.52;;
68214;SDS011;55036;52.138;5.236;2023-02-12T06:51:12;25.98;;;15.15;;
68214;SDS011;55036;52.138;5.236;2023-02-12T06:53:40;27.80;;;15.70;;
68214;SDS011;55036;52.138;5.236;2023-02-12T06:56:08;26.42;;;15.82;;
68214;SDS011;55036;52.138;5.236;2023-02-12T06:58:37;26.42;;;15.25;;
68214;SDS011;55036;52.138;5.236;2023-02-12T07:01:11;21.45;;;14.73;;
68214;SDS011;55036;52.138;5.236;2023-02-12T07:06:07;23.70;;;14.45;;
68214;SDS011;55036;52.138;5.236;2023-02-12T07:08:34;25.40;;;13.73;;
68214;SDS011;55036;52.138;5.236;2023-02-12T07:11:02;21.13;;;13.25;;
68214;SDS011;55036;52.138;5.236;2023-02-12T07:13:29;24.38;;;13.82;;
68214;SDS011;55036;52.138;5.236;2023-02-12T07:15:55;19.52;;;12.90;;
68214;SDS011;55036;52.138;5.236;2023-02-12T07:18:23;23.73;;;14.00;;
68214;SDS011;55036;52.138;5.236;2023-02-12T07:20:49;23.70;;;14.05;;
68214;SDS011;55036;52.138;5.236;2023-02-12T07:23:16;23.27;;;12.88;;
68214;SDS011;55036;52.138;5.236;2023-02-12T07:25:43;23.20;;;13.95;;
68214;SDS011;55036;52.138;5.236;2023-02-12T07:28:09;20.90;;;13.70;;
68214;SDS011;55036;52.138;5.236;2023-02-12T07:30:36;20.98;;;13.40;;
68214;SDS011;55036;52.138;5.236;2023-02-12T07:33:04;20.10;;;13.27;;
68214;SDS011;55036;52.138;5.236;2023-02-12T07:35:31;20.38;;;12.98;;
68214;SDS011;55036;52.138;5.236;2023-02-12T07:37:57;20.30;;;13.70;;
68214;SDS011;55036;52.138;5.236;2023-02-12T07:40:24;21.42;;;14.43;;
68214;SDS011;55036;52.138;5.236;2023-02-12T07:42:53;20.67;;;14.00;;
68214;SDS011;55036;52.138;5.236;2023-02-12T07:45:21;21.30;;;13.20;;
68214;SDS011;55036;52.138;5.236;2023-02-12T07:47:47;21.38;;;13.63;;
68214;SDS011;55036;52.138;5.236;2023-02-12T07:50:15;21.17;;;13.80;;
68214;SDS011;55036;52.138;5.236;2023-02-12T07:52:42;22.80;;;13.60;;
68214;SDS011;55036;52.138;5.236;2023-02-12T07:55:09;20.48;;;13.90;;
68214;SDS011;55036;52.138;5.236;2023-02-12T07:57:36;18.85;;;13.82;;
68214;SDS011;55036;52.138;5.236;2023-02-12T08:00:03;20.60;;;13.07;;
68214;SDS011;55036;52.138;5.236;2023-02-12T08:02:30;20.27;;;13.38;;
68214;SDS011;55036;52.138;5.236;2023-02-12T08:04:57;20.02;;;12.85;;
68214;SDS011;55036;52.138;5.236;2023-02-12T08:07:24;18.45;;;13.10;;
68214;SDS011;55036;52.138;5.236;2023-02-12T08:09:51;18.83;;;13.40;;
68214;SDS011;55036;52.138;5.236;2023-02-12T08:12:18;21.35;;;13.77;;
68214;SDS011;55036;52.138;5.236;2023-02-12T08:14:45;22.48;;;13.27;;
68214;SDS011;55036;52.138;5.236;2023-02-12T08:17:11;26.95;;;14.77;;
68214;SDS011;55036;52.138;5.236;2023-02-12T08:19:38;21.20;;;14.25;;
68214;SDS011;55036;52.138;5.236;2023-02-12T08:22:05;21.63;;;14.55;;
68214;SDS011;55036;52.138;5.236;2023-02-12T08:24:32;22.58;;;13.80;;
68214;SDS011;55036;52.138;5.236;2023-02-12T08:26:59;21.08;;;14.63;;
68214;SDS011;55036;52.138;5.236;2023-02-12T08:29:26;19.70;;;14.05;;
68214;SDS011;55036;52.138;5.236;2023-02-12T08:31:55;20.02;;;14.25;;
68214;SDS011;55036;52.138;5.236;2023-02-12T08:34:25;20.50;;;14.68;;
68214;SDS011;55036;52.138;5.236;2023-02-12T08:36:53;22.60;;;14.90;;
68214;SDS011;55036;52.138;5.236;2023-02-12T08:39:22;22.05;;;14.95;;
68214;SDS011;55036;52.138;5.236;2023-02-12T08:41:50;23.38;;;15.75;;
68214;SDS011;55036;52.138;5.236;2023-02-12T08:44:18;21.98;;;14.25;;
68214;SDS011;55036;52.138;5.236;2023-02-12T08:46:46;25.55;;;15.88;;
68214;SDS011;55036;52.138;5.236;2023-02-12T08:49:29;20.60;;;13.70;;
68214;SDS011;55036;52.138;5.236;2023-02-12T08:51:57;21.90;;;14.05;;
68214;SDS011;55036;52.138;5.236;2023-02-12T08:54:26;19.45;;;14.05;;
68214;SDS011;55036;52.138;5.236;2023-02-12T08:56:54;21.75;;;14.07;;
68214;SDS011;55036;52.138;5.236;2023-02-12T08:59:22;21.50;;;15.38;;
68214;SDS011;55036;52.138;5.236;2023-02-12T09:01:50;21.80;;;13.75;;
68214;SDS011;55036;52.138;5.236;2023-02-12T09:04:19;22.13;;;14.02;;
68214;SDS011;55036;52.138;5.236;2023-02-12T09:06:47;20.70;;;14.77;;
68214;SDS011;55036;52.138;5.236;2023-02-12T09:09:15;18.50;;;14.07;;
68214;SDS011;55036;52.138;5.236;2023-02-12T09:11:42;22.70;;;14.23;;
68214;SDS011;55036;52.138;5.236;2023-02-12T09:14:10;20.27;;;14.23;;
68214;SDS011;55036;52.138;5.236;2023-02-12T09:16:39;21.60;;;14.27;;
68214;SDS011;55036;52.138;5.236;2023-02-12T09:19:06;21.50;;;14.02;;
68214;SDS011;55036;52.138;5.236;2023-02-12T09:21:34;19.65;;;13.80;;
68214;SDS011;55036;52.138;5.236;2023-02-12T09:24:01;21.05;;;14.13;;
68214;SDS011;55036;52.138;5.236;2023-02-12T09:26:28;19.38;;;13.38;;
68214;SDS011;55036;52.138;5.236;2023-02-12T09:28:55;21.23;;;13.85;;
68214;SDS011;55036;52.138;5.236;2023-02-12T09:31:23;18.70;;;13.70;;
68214;SDS011;55036;52.138;5.236;2023-02-12T09:33:52;18.60;;;14.55;;
68214;SDS011;55036;52.138;5.236;2023-02-12T09:36:22;20.75;;;14.10;;
68214;SDS011;55036;52.138;5.236;2023-02-12T09:38:49;19.30;;;13.98;;
68214;SDS011;55036;52.138;5.236;2023-02-12T09:41:27;18.52;;;13.00;;
68214;SDS011;55036;52.138;5.236;2023-02-12T09:44:28;18.23;;;12.48;;
68214;SDS011;55036;52.138;5.236;2023-02-12T09:52:26;18.85;;;13.20;;
68214;SDS011;55036;52.138;5.236;2023-02-12T09:54:54;17.73;;;12.55;;
68214;SDS011;55036;52.138;5.236;2023-02-12T09:57:29;18.92;;;12.80;;
68214;SDS011;55036;52.138;5.236;2023-02-12T10:00:05;18.25;;;12.00;;
68214;SDS011;55036;52.138;5.236;2023-02-12T10:02:35;16.17;;;12.65;;
68214;SDS011;55036;52.138;5.236;2023-02-12T10:05:03;19.05;;;12.70;;
68214;SDS011;55036;52.138;5.236;2023-02-12T10:21:30;17.92;;;12.40;;
68214;SDS011;55036;52.138;5.236;2023-02-12T10:24:12;16.35;;;11.85;;
68214;SDS011;55036;52.138;5.236;2023-02-12T10:26:53;34.70;;;19.48;;
68214;SDS011;55036;52.138;5.236;2023-02-12T10:29:24;23.75;;;16.08;;
68214;SDS011;55036;52.138;5.236;2023-02-12T10:31:59;19.40;;;14.13;;
68214;SDS011;55036;52.138;5.236;2023-02-12T10:34:33;19.73;;;13.50;;
68214;SDS011;55036;52.138;5.236;2023-02-12T10:37:16;23.42;;;14.55;;
68214;SDS011;55036;52.138;5.236;2023-02-12T10:40:04;18.70;;;12.95;;
68214;SDS011;55036;52.138;5.236;2023-02-12T10:42:43;21.05;;;13.25;;
68214;SDS011;55036;52.138;5.236;2023-02-12T10:45:20;19.13;;;13.57;;
68214;SDS011;55036;52.138;5.236;2023-02-12T10:47:50;19.13;;;14.38;;
68214;SDS011;55036;52.138;5.236;2023-02-12T10:51:01;19.73;;;13.35;;
68214;SDS011;55036;52.138;5.236;2023-02-12T10:53:35;23.65;;;14.60;;
68214;SDS011;55036;52.138;5.236;2023-02-12T10:58:33;18.30;;;13.90;;
68214;SDS011;55036;52.138;5.236;2023-02-12T11:01:00;19.38;;;14.35;;
68214;SDS011;55036;52.138;5.236;2023-02-12T11:03:29;20.98;;;14.10;;
68214;SDS011;55036;52.138;5.236;2023-02-12T11:06:10;20.83;;;13.95;;
68214;SDS011;55036;52.138;5.236;2023-02-12T11:08:40;21.08;;;13.77;;
68214;SDS011;55036;52.138;5.236;2023-02-12T11:11:11;22.27;;;14.65;;
68214;SDS011;55036;52.138;5.236;2023-02-12T11:13:59;23.30;;;14.80;;
68214;SDS011;55036;52.138;5.236;2023-02-12T11:16:39;20.98;;;13.57;;
68214;SDS011;55036;52.138;5.236;2023-02-12T11:19:29;22.10;;;15.48;;
68214;SDS011;55036;52.138;5.236;2023-02-12T11:22:05;20.92;;;14.07;;
68214;SDS011;55036;52.138;5.236;2023-02-12T11:24:35;21.35;;;14.55;;
68214;SDS011;55036;52.138;5.236;2023-02-12T11:27:22;21.70;;;13.57;;
68214;SDS011;55036;52.138;5.236;2023-02-12T11:30:04;19.08;;;13.43;;
68214;SDS011;55036;52.138;5.236;2023-02-12T11:32:38;25.85;;;14.57;;
68214;SDS011;55036;52.138;5.236;2023-02-12T11:35:16;21.90;;;14.82;;
68214;SDS011;55036;52.138;5.236;2023-02-12T11:37:54;19.88;;;14.02;;
68214;SDS011;55036;52.138;5.236;2023-02-12T11:42:50;21.98;;;14.10;;
68214;SDS011;55036;52.138;5.236;2023-02-12T11:45:25;19.45;;;13.82;;
68214;SDS011;55036;52.138;5.236;2023-02-12T11:47:59;20.75;;;15.20;;
68214;SDS011;55036;52.138;5.236;2023-02-12T11:50:30;22.73;;;15.07;;
68214;SDS011;55036;52.138;5.236;2023-02-12T11:52:59;21.85;;;14.52;;
68214;SDS011;55036;52.138;5.236;2023-02-12T11:55:33;22.77;;;14.77;;
68214;SDS011;55036;52.138;5.236;2023-02-12T11:58:13;20.10;;;14.55;;
68214;SDS011;55036;52.138;5.236;2023-02-12T12:03:49;21.38;;;14.43;;
68214;SDS011;55036;52.138;5.236;2023-02-12T12:12:00;24.05;;;13.55;;
68214;SDS011;55036;52.138;5.236;2023-02-12T12:14:35;21.30;;;13.85;;
68214;SDS011;55036;52.138;5.236;2023-02-12T12:18:14;20.10;;;14.65;;
68214;SDS011;55036;52.138;5.236;2023-02-12T12:20:43;20.85;;;13.63;;
68214;SDS011;55036;52.138;5.236;2023-02-12T12:23:36;24.92;;;14.93;;
68214;SDS011;55036;52.138;5.236;2023-02-12T12:26:09;19.90;;;13.77;;
68214;SDS011;55036;52.138;5.236;2023-02-12T12:28:47;21.27;;;14.10;;
68214;SDS011;55036;52.138;5.236;2023-02-12T12:31:26;19.48;;;14.40;;
68214;SDS011;55036;52.138;5.236;2023-02-12T12:34:02;19.27;;;14.27;;
68214;SDS011;55036;52.138;5.236;2023-02-12T12:54:04;16.75;;;12.77;;
68214;SDS011;55036;52.138;5.236;2023-02-12T13:10:39;18.58;;;12.57;;
68214;SDS011;55036;52.138;5.236;2023-02-12T13:13:21;16.48;;;11.95;;
68214;SDS011;55036;52.138;5.236;2023-02-12T13:15:55;16.80;;;11.55;;
68214;SDS011;55036;52.138;5.236;2023-02-12T13:18:34;16.50;;;12.25;;
68214;SDS011;55036;52.138;5.236;2023-02-12T13:23:56;15.40;;;12.00;;
68214;SDS011;55036;52.138;5.236;2023-02-12T13:26:31;16.13;;;12.30;;
68214;SDS011;55036;52.138;5.236;2023-02-12T13:29:16;16.17;;;12.43;;
68214;SDS011;55036;52.138;5.236;2023-02-12T13:31:48;17.55;;;12.75;;
68214;SDS011;55036;52.138;5.236;2023-02-12T13:34:21;16.83;;;12.15;;
68214;SDS011;55036;52.138;5.236;2023-02-12T13:36:51;20.60;;;13.10;;
68214;SDS011;55036;52.138;5.236;2023-02-12T13:42:00;15.20;;;11.43;;
68214;SDS011;55036;52.138;5.236;2023-02-12T13:44:31;18.33;;;13.15;;
68214;SDS011;55036;52.138;5.236;2023-02-12T14:01:00;19.42;;;12.43;;
68214;SDS011;55036;52.138;5.236;2023-02-12T14:03:29;16.00;;;11.80;;
68214;SDS011;55036;52.138;5.236;2023-02-12T14:06:16;16.73;;;12.10;;
68214;SDS011;55036;52.138;5.236;2023-02-12T14:08:50;16.10;;;12.40;;
68214;SDS011;55036;52.138;5.236;2023-02-12T14:14:01;15.43;;;10.77;;
68214;SDS011;55036;52.138;5.236;2023-02-12T14:24:54;14.07;;;10.80;;
68214;SDS011;55036;52.138;5.236;2023-02-12T14:27:32;16.38;;;10.95;;
68214;SDS011;55036;52.138;5.236;2023-02-12T14:35:38;17.45;;;11.18;;
68214;SDS011;55036;52.138;5.236;2023-02-12T14:51:19;15.98;;;11.55;;
68214;SDS011;55036;52.138;5.236;2023-02-12T14:54:01;17.52;;;10.88;;
68214;SDS011;55036;52.138;5.236;2023-02-12T14:56:32;13.75;;;10.82;;
68214;SDS011;55036;52.138;5.236;2023-02-12T14:59:16;16.88;;;12.25;;
68214;SDS011;55036;52.138;5.236;2023-02-12T15:01:46;19.42;;;12.48;;
68214;SDS011;55036;52.138;5.236;2023-02-12T15:04:24;20.05;;;13.77;;
68214;SDS011;55036;52.138;5.236;2023-02-12T15:09:41;21.45;;;13.85;;
68214;SDS011;55036;52.138;5.236;2023-02-12T15:12:22;16.45;;;11.65;;
68214;SDS011;55036;52.138;5.236;2023-02-12T15:15:11;16.92;;;11.85;;
68214;SDS011;55036;52.138;5.236;2023-02-12T15:17:38;18.65;;;11.98;;
68214;SDS011;55036;52.138;5.236;2023-02-12T15:20:12;15.43;;;11.55;;
68214;SDS011;55036;52.138;5.236;2023-02-12T15:22:46;19.20;;;12.32;;
68214;SDS011;55036;52.138;5.236;2023-02-12T15:27:54;18.60;;;12.38;;
68214;SDS011;55036;52.138;5.236;2023-02-12T15:30:27;16.52;;;11.85;;
68214;SDS011;55036;52.138;5.236;2023-02-12T15:32:57;14.15;;;11.07;;
68214;SDS011;55036;52.138;5.236;2023-02-12T15:35:28;17.02;;;12.25;;
68214;SDS011;55036;52.138;5.236;2023-02-12T15:37:57;15.95;;;11.82;;
68214;SDS011;55036;52.138;5.236;2023-02-12T15:40:27;18.15;;;11.80;;
68214;SDS011;55036;52.138;5.236;2023-02-12T15:42:56;18.75;;;11.82;;
68214;SDS011;55036;52.138;5.236;2023-02-12T15:45:25;17.02;;;11.77;;
68214;SDS011;55036;52.138;5.236;2023-02-12T15:50:34;17.58;;;12.02;;
68214;SDS011;55036;52.138;5.236;2023-02-12T15:53:12;19.75;;;12.90;;
68214;SDS011;55036;52.138;5.236;2023-02-12T15:55:40;17.77;;;11.98;;
68214;SDS011;55036;52.138;5.236;2023-02-12T15:58:20;15.70;;;11.52;;
68214;SDS011;55036;52.138;5.236;2023-02-12T16:00:52;17.70;;;11.88;;
68214;SDS011;55036;52.138;5.236;2023-02-12T16:03:21;18.05;;;11.85;;
68214;SDS011;55036;52.138;5.236;2023-02-12T16:05:51;18.23;;;11.85;;
68214;SDS011;55036;52.138;5.236;2023-02-12T16:08:21;16.90;;;12.50;;
68214;SDS011;55036;52.138;5.236;2023-02-12T16:10:50;17.25;;;12.88;;
68214;SDS011;55036;52.138;5.236;2023-02-12T16:13:20;21.45;;;14.27;;
68214;SDS011;55036;52.138;5.236;2023-02-12T16:18:37;21.08;;;13.38;;
68214;SDS011;55036;52.138;5.236;2023-02-12T16:21:08;21.70;;;13.50;;
68214;SDS011;55036;52.138;5.236;2023-02-12T16:23:44;20.02;;;13.75;;
68214;SDS011;55036;52.138;5.236;2023-02-12T16:26:20;18.58;;;13.68;;
68214;SDS011;55036;52.138;5.236;2023-02-12T16:28:51;24.20;;;14.00;;
68214;SDS011;55036;52.138;5.236;2023-02-12T16:31:19;22.98;;;14.52;;
68214;SDS011;55036;52.138;5.236;2023-02-12T16:33:51;19.48;;;14.23;;
68214;SDS011;55036;52.138;5.236;2023-02-12T16:38:54;20.73;;;13.65;;
68214;SDS011;55036;52.138;5.236;2023-02-12T16:41:24;20.58;;;13.77;;
68214;SDS011;55036;52.138;5.236;2023-02-12T16:46:25;21.05;;;14.98;;
68214;SDS011;55036;52.138;5.236;2023-02-12T16:48:54;19.63;;;13.75;;
68214;SDS011;55036;52.138;5.236;2023-02-12T16:51:26;21.05;;;13.40;;
68214;SDS011;55036;52.138;5.236;2023-02-12T16:53:55;20.17;;;14.55;;
68214;SDS011;55036;52.138;5.236;2023-02-12T16:56:24;22.85;;;16.30;;
68214;SDS011;55036;52.138;5.236;2023-02-12T16:58:54;29.55;;;19.83;;
68214;SDS011;55036;52.138;5.236;2023-02-12T17:01:24;26.00;;;16.83;;
68214;SDS011;55036;52.138;5.236;2023-02-12T17:03:57;22.00;;;14.80;;
68214;SDS011;55036;52.138;5.236;2023-02-12T17:06:26;21.42;;;15.32;;
68214;SDS011;55036;52.138;5.236;2023-02-12T17:08:54;23.35;;;15.27;;
68214;SDS011;55036;52.138;5.236;2023-02-12T17:11:22;26.30;;;18.88;;
68214;SDS011;55036;52.138;5.236;2023-02-12T17:13:50;23.98;;;16.73;;
68214;SDS011;55036;52.138;5.236;2023-02-12T17:16:19;23.85;;;15.95;;
68214;SDS011;55036;52.138;5.236;2023-02-12T17:18:56;23.15;;;15.68;;
68214;SDS011;55036;52.138;5.236;2023-02-12T17:21:23;21.58;;;14.70;;
68214;SDS011;55036;52.138;5.236;2023-02-12T17:23:56;23.27;;;14.27;;
68214;SDS011;55036;52.138;5.236;2023-02-12T17:26:23;24.92;;;15.65;;
68214;SDS011;55036;52.138;5.236;2023-02-12T17:28:50;21.40;;;15.05;;
68214;SDS011;55036;52.138;5.236;2023-02-12T17:31:17;28.45;;;15.57;;
68214;SDS011;55036;52.138;5.236;2023-02-12T17:33:45;21.35;;;15.05;;